Peace River Airport
CYPE : now visible

Airfield :











YOU CAN JOIN US ON...

 
LOGIN :

Register | Disclaimer

   EN    FR    IT 

 









Legend :    VFR   Marginal VFR   IFR   Intensive IFR   Very Intensive IFR
Visi :
Ceiling :
>= 8 km
>= 3000ft
5 to 8 km
1000 to 3000 ft
1500m to 5 km
500 to 1000 ft
800 to 1500m
200 to 500 ft
< 800m
< 200 ft
Symbols :   Thunderstorms  Fog  Heavy snow  Heavy precipitations  Wind > 20 kt






- Airport Elevation : 1873 ft
- IATA code : YPE


CYPE - Peace River

CURRENT METAR :
  • 121800Z 02008KT 8SM -SN SCT035 OVC075 M18/M22 A2990 RMK SC3AC5 SLP181

EXPIRED METARs :
  • 121700Z 01009KT 15SM -SN OVC075 M19/M22 A2989 RMK AC8 SLP177
  • 121600Z 02007KT 15SM -SN OVC075 M19/M22 A2987 RMK AC8 SLP171

TAF TAF CYPE
Valid from the 12 at 13:00 until the 13 at 01:00 UTC


121241Z 1213/1301 03005KT P6SM -SN OVC030
TEMPO 1213/1215 4SM -SN VV030
FM121500 03008KT P6SM -SN SCT015 OVC025
TEMPO 1215/1219 3SM -SN BKN015
BECMG 1219/1221 2SM -SN VV015
FM122100 03008KT 2SM -SN VV015
TEMPO 1221/1301 3/4SM -SN VV008 RMK NXT FCST BY 121900Z



MET'MAP, your aeronautical weather chart ! - Copyright ORBIFLY December 2007 - Disclaimer

ORBIFLY MET'MAP TEAM :

Programming & Development : Alexandra Zaïnal
Concept & original design : Baudouin d'Aumeries
Assistance for programming : Marc-Olivier Méhu
Technical & hardware support : Manuel Goepfert

Contact : metmap@orbifly.com




SOURCES & CREDITS :

   NOAA       Earth
Advisory